sensor_id;sensor_type;location;lat;lon;timestamp;P1;durP1;ratioP1;P2;durP2;ratioP2
76065;SDS011;64763;48.928;8.474;2023-04-07T00:01:13;8.95;;;4.22;;
76065;SDS011;64763;48.928;8.474;2023-04-07T00:03:38;9.35;;;5.00;;
76065;SDS011;64763;48.928;8.474;2023-04-07T00:06:05;7.10;;;4.90;;
76065;SDS011;64763;48.928;8.474;2023-04-07T00:08:31;8.20;;;4.97;;
76065;SDS011;64763;48.928;8.474;2023-04-07T00:10:56;6.95;;;4.40;;
76065;SDS011;64763;48.928;8.474;2023-04-07T00:13:22;8.75;;;5.10;;
76065;SDS011;64763;48.928;8.474;2023-04-07T00:15:47;8.30;;;4.85;;
76065;SDS011;64763;48.928;8.474;2023-04-07T00:18:13;6.65;;;4.15;;
76065;SDS011;64763;48.928;8.474;2023-04-07T00:20:38;6.05;;;4.00;;
76065;SDS011;64763;48.928;8.474;2023-04-07T00:23:04;5.78;;;3.97;;
76065;SDS011;64763;48.928;8.474;2023-04-07T00:25:30;8.02;;;4.03;;
76065;SDS011;64763;48.928;8.474;2023-04-07T00:27:55;6.47;;;3.90;;
76065;SDS011;64763;48.928;8.474;2023-04-07T00:30:20;6.65;;;3.58;;
76065;SDS011;64763;48.928;8.474;2023-04-07T00:32:46;7.13;;;3.60;;
76065;SDS011;64763;48.928;8.474;2023-04-07T00:35:11;6.15;;;4.38;;
76065;SDS011;64763;48.928;8.474;2023-04-07T00:37:36;6.78;;;4.15;;
76065;SDS011;64763;48.928;8.474;2023-04-07T00:40:02;6.10;;;3.40;;
76065;SDS011;64763;48.928;8.474;2023-04-07T00:42:28;7.75;;;4.60;;
76065;SDS011;64763;48.928;8.474;2023-04-07T00:44:53;5.30;;;3.75;;
76065;SDS011;64763;48.928;8.474;2023-04-07T00:47:19;6.97;;;3.58;;
76065;SDS011;64763;48.928;8.474;2023-04-07T00:49:44;5.72;;;3.63;;
76065;SDS011;64763;48.928;8.474;2023-04-07T00:52:10;7.55;;;4.50;;
76065;SDS011;64763;48.928;8.474;2023-04-07T00:54:36;7.18;;;4.00;;
76065;SDS011;64763;48.928;8.474;2023-04-07T00:57:02;8.18;;;4.20;;
76065;SDS011;64763;48.928;8.474;2023-04-07T00:59:28;4.95;;;3.42;;
76065;SDS011;64763;48.928;8.474;2023-04-07T01:04:32;6.22;;;3.45;;
76065;SDS011;64763;48.928;8.474;2023-04-07T01:07:03;5.05;;;3.47;;
76065;SDS011;64763;48.928;8.474;2023-04-07T01:09:39;5.43;;;3.72;;
76065;SDS011;64763;48.928;8.474;2023-04-07T01:12:17;5.35;;;3.60;;
76065;SDS011;64763;48.928;8.474;2023-04-07T01:14:53;7.15;;;3.80;;
76065;SDS011;64763;48.928;8.474;2023-04-07T01:17:20;6.57;;;3.10;;
76065;SDS011;64763;48.928;8.474;2023-04-07T01:19:52;7.20;;;3.30;;
76065;SDS011;64763;48.928;8.474;2023-04-07T01:22:23;6.03;;;3.50;;
76065;SDS011;64763;48.928;8.474;2023-04-07T01:30:19;5.30;;;3.60;;
76065;SDS011;64763;48.928;8.474;2023-04-07T01:32:45;5.28;;;3.67;;
76065;SDS011;64763;48.928;8.474;2023-04-07T01:35:15;7.15;;;3.42;;
76065;SDS011;64763;48.928;8.474;2023-04-07T01:37:41;5.78;;;3.28;;
76065;SDS011;64763;48.928;8.474;2023-04-07T01:40:09;5.40;;;3.30;;
76065;SDS011;64763;48.928;8.474;2023-04-07T01:42:35;5.95;;;3.45;;
76065;SDS011;64763;48.928;8.474;2023-04-07T01:45:02;5.32;;;3.25;;
76065;SDS011;64763;48.928;8.474;2023-04-07T01:47:28;5.13;;;3.40;;
76065;SDS011;64763;48.928;8.474;2023-04-07T01:49:57;9.45;;;3.45;;
76065;SDS011;64763;48.928;8.474;2023-04-07T01:52:23;4.47;;;3.20;;
76065;SDS011;64763;48.928;8.474;2023-04-07T01:54:50;4.72;;;3.40;;
76065;SDS011;64763;48.928;8.474;2023-04-07T01:57:16;5.97;;;3.35;;
76065;SDS011;64763;48.928;8.474;2023-04-07T01:59:41;4.95;;;3.08;;
76065;SDS011;64763;48.928;8.474;2023-04-07T02:02:07;4.30;;;2.63;;
76065;SDS011;64763;48.928;8.474;2023-04-07T02:10:01;5.28;;;2.85;;
76065;SDS011;64763;48.928;8.474;2023-04-07T02:12:28;3.78;;;2.55;;
76065;SDS011;64763;48.928;8.474;2023-04-07T02:14:53;4.68;;;2.92;;
76065;SDS011;64763;48.928;8.474;2023-04-07T02:17:20;3.92;;;2.45;;
76065;SDS011;64763;48.928;8.474;2023-04-07T02:19:47;3.38;;;2.55;;
76065;SDS011;64763;48.928;8.474;2023-04-07T02:22:14;4.05;;;2.70;;
76065;SDS011;64763;48.928;8.474;2023-04-07T02:24:40;4.25;;;2.70;;
76065;SDS011;64763;48.928;8.474;2023-04-07T02:27:06;5.80;;;2.70;;
76065;SDS011;64763;48.928;8.474;2023-04-07T02:29:32;4.55;;;2.80;;
76065;SDS011;64763;48.928;8.474;2023-04-07T02:31:57;3.95;;;2.55;;
76065;SDS011;64763;48.928;8.474;2023-04-07T02:34:22;4.18;;;2.33;;
76065;SDS011;64763;48.928;8.474;2023-04-07T02:36:48;4.00;;;2.80;;
76065;SDS011;64763;48.928;8.474;2023-04-07T02:39:13;3.15;;;2.50;;
76065;SDS011;64763;48.928;8.474;2023-04-07T02:41:38;4.55;;;2.92;;
76065;SDS011;64763;48.928;8.474;2023-04-07T02:44:04;4.90;;;2.65;;
76065;SDS011;64763;48.928;8.474;2023-04-07T02:46:29;4.65;;;2.58;;
76065;SDS011;64763;48.928;8.474;2023-04-07T02:48:54;4.18;;;2.42;;
76065;SDS011;64763;48.928;8.474;2023-04-07T02:51:20;4.25;;;2.50;;
76065;SDS011;64763;48.928;8.474;2023-04-07T02:53:45;3.33;;;2.20;;
76065;SDS011;64763;48.928;8.474;2023-04-07T02:56:10;3.47;;;2.38;;
76065;SDS011;64763;48.928;8.474;2023-04-07T02:58:36;4.25;;;2.38;;
76065;SDS011;64763;48.928;8.474;2023-04-07T03:01:01;6.15;;;3.13;;
76065;SDS011;64763;48.928;8.474;2023-04-07T03:03:26;4.57;;;2.70;;
76065;SDS011;64763;48.928;8.474;2023-04-07T03:05:52;3.38;;;2.50;;
76065;SDS011;64763;48.928;8.474;2023-04-07T03:08:17;3.50;;;2.42;;
76065;SDS011;64763;48.928;8.474;2023-04-07T03:10:42;5.28;;;3.13;;
76065;SDS011;64763;48.928;8.474;2023-04-07T03:13:08;3.53;;;2.33;;
76065;SDS011;64763;48.928;8.474;2023-04-07T03:15:33;4.47;;;2.60;;
76065;SDS011;64763;48.928;8.474;2023-04-07T03:17:59;3.40;;;2.38;;
76065;SDS011;64763;48.928;8.474;2023-04-07T03:20:24;3.90;;;2.67;;
76065;SDS011;64763;48.928;8.474;2023-04-07T03:22:49;4.38;;;3.20;;
76065;SDS011;64763;48.928;8.474;2023-04-07T03:25:15;4.25;;;2.55;;
76065;SDS011;64763;48.928;8.474;2023-04-07T03:27:40;3.85;;;2.50;;
76065;SDS011;64763;48.928;8.474;2023-04-07T03:30:06;3.22;;;2.22;;
76065;SDS011;64763;48.928;8.474;2023-04-07T03:32:32;3.83;;;2.47;;
76065;SDS011;64763;48.928;8.474;2023-04-07T03:34:57;3.72;;;2.50;;
76065;SDS011;64763;48.928;8.474;2023-04-07T03:37:23;4.03;;;2.70;;
76065;SDS011;64763;48.928;8.474;2023-04-07T03:39:48;4.05;;;2.88;;
76065;SDS011;64763;48.928;8.474;2023-04-07T03:42:13;3.97;;;2.75;;
76065;SDS011;64763;48.928;8.474;2023-04-07T03:44:39;3.28;;;2.35;;
76065;SDS011;64763;48.928;8.474;2023-04-07T03:47:04;4.10;;;2.70;;
76065;SDS011;64763;48.928;8.474;2023-04-07T03:49:30;3.90;;;2.40;;
76065;SDS011;64763;48.928;8.474;2023-04-07T03:51:55;3.67;;;2.72;;
76065;SDS011;64763;48.928;8.474;2023-04-07T03:54:21;4.55;;;2.63;;
76065;SDS011;64763;48.928;8.474;2023-04-07T03:56:47;3.90;;;2.67;;
76065;SDS011;64763;48.928;8.474;2023-04-07T03:59:12;3.88;;;2.83;;
76065;SDS011;64763;48.928;8.474;2023-04-07T04:01:37;4.85;;;3.10;;
76065;SDS011;64763;48.928;8.474;2023-04-07T04:04:04;5.32;;;2.90;;
76065;SDS011;64763;48.928;8.474;2023-04-07T04:06:29;4.22;;;3.08;;
76065;SDS011;64763;48.928;8.474;2023-04-07T04:08:55;4.50;;;3.17;;
76065;SDS011;64763;48.928;8.474;2023-04-07T04:11:20;4.43;;;3.28;;
76065;SDS011;64763;48.928;8.474;2023-04-07T04:13:46;5.00;;;3.28;;
76065;SDS011;64763;48.928;8.474;2023-04-07T04:16:11;4.07;;;3.20;;
76065;SDS011;64763;48.928;8.474;2023-04-07T04:18:36;8.80;;;3.22;;
76065;SDS011;64763;48.928;8.474;2023-04-07T04:21:02;4.88;;;3.45;;
76065;SDS011;64763;48.928;8.474;2023-04-07T04:23:27;5.75;;;3.47;;
76065;SDS011;64763;48.928;8.474;2023-04-07T04:25:53;4.82;;;3.40;;
76065;SDS011;64763;48.928;8.474;2023-04-07T04:28:19;7.43;;;3.78;;
76065;SDS011;64763;48.928;8.474;2023-04-07T04:30:45;5.65;;;3.70;;
76065;SDS011;64763;48.928;8.474;2023-04-07T04:33:10;5.28;;;3.15;;
76065;SDS011;64763;48.928;8.474;2023-04-07T04:35:35;4.95;;;3.35;;
76065;SDS011;64763;48.928;8.474;2023-04-07T04:38:01;4.57;;;2.97;;
76065;SDS011;64763;48.928;8.474;2023-04-07T04:40:26;6.00;;;3.55;;
76065;SDS011;64763;48.928;8.474;2023-04-07T04:42:51;5.78;;;3.67;;
76065;SDS011;64763;48.928;8.474;2023-04-07T04:45:17;5.72;;;3.80;;
76065;SDS011;64763;48.928;8.474;2023-04-07T04:47:42;6.72;;;3.50;;
76065;SDS011;64763;48.928;8.474;2023-04-07T04:50:08;4.88;;;2.75;;
76065;SDS011;64763;48.928;8.474;2023-04-07T04:52:34;6.03;;;3.28;;
76065;SDS011;64763;48.928;8.474;2023-04-07T04:54:59;4.60;;;3.05;;
76065;SDS011;64763;48.928;8.474;2023-04-07T04:57:24;4.28;;;3.13;;
76065;SDS011;64763;48.928;8.474;2023-04-07T04:59:50;9.48;;;3.58;;
76065;SDS011;64763;48.928;8.474;2023-04-07T05:02:15;4.63;;;3.05;;
76065;SDS011;64763;48.928;8.474;2023-04-07T05:04:41;5.63;;;3.58;;
76065;SDS011;64763;48.928;8.474;2023-04-07T05:07:06;4.95;;;3.20;;
76065;SDS011;64763;48.928;8.474;2023-04-07T05:09:32;5.88;;;3.60;;
76065;SDS011;64763;48.928;8.474;2023-04-07T05:11:57;5.35;;;3.83;;
76065;SDS011;64763;48.928;8.474;2023-04-07T05:14:22;5.57;;;3.75;;
76065;SDS011;64763;48.928;8.474;2023-04-07T05:16:48;6.47;;;3.63;;
76065;SDS011;64763;48.928;8.474;2023-04-07T05:19:13;6.70;;;3.75;;
76065;SDS011;64763;48.928;8.474;2023-04-07T05:21:39;4.28;;;3.20;;
76065;SDS011;64763;48.928;8.474;2023-04-07T05:24:04;4.63;;;2.50;;
76065;SDS011;64763;48.928;8.474;2023-04-07T05:26:30;4.90;;;3.45;;
76065;SDS011;64763;48.928;8.474;2023-04-07T05:28:55;3.97;;;2.80;;
76065;SDS011;64763;48.928;8.474;2023-04-07T05:31:21;4.55;;;2.90;;
76065;SDS011;64763;48.928;8.474;2023-04-07T05:33:46;4.70;;;2.58;;
76065;SDS011;64763;48.928;8.474;2023-04-07T05:36:11;4.03;;;2.70;;
76065;SDS011;64763;48.928;8.474;2023-04-07T05:38:37;4.75;;;2.78;;
76065;SDS011;64763;48.928;8.474;2023-04-07T05:41:02;6.63;;;3.30;;
76065;SDS011;64763;48.928;8.474;2023-04-07T05:43:27;7.93;;;4.10;;
76065;SDS011;64763;48.928;8.474;2023-04-07T05:45:53;6.78;;;4.85;;
76065;SDS011;64763;48.928;8.474;2023-04-07T05:48:18;7.35;;;4.32;;
76065;SDS011;64763;48.928;8.474;2023-04-07T05:50:43;6.40;;;3.85;;
76065;SDS011;64763;48.928;8.474;2023-04-07T05:53:09;5.45;;;3.85;;
76065;SDS011;64763;48.928;8.474;2023-04-07T05:55:34;4.93;;;3.63;;
76065;SDS011;64763;48.928;8.474;2023-04-07T05:58:00;5.50;;;3.83;;
76065;SDS011;64763;48.928;8.474;2023-04-07T06:00:26;7.28;;;4.18;;
76065;SDS011;64763;48.928;8.474;2023-04-07T06:02:52;6.22;;;4.35;;
76065;SDS011;64763;48.928;8.474;2023-04-07T06:05:18;5.18;;;3.50;;
76065;SDS011;64763;48.928;8.474;2023-04-07T06:07:43;5.03;;;3.33;;
76065;SDS011;64763;48.928;8.474;2023-04-07T06:10:08;5.05;;;3.30;;
76065;SDS011;64763;48.928;8.474;2023-04-07T06:12:34;5.10;;;3.65;;
76065;SDS011;64763;48.928;8.474;2023-04-07T06:14:59;10.30;;;4.75;;
76065;SDS011;64763;48.928;8.474;2023-04-07T06:17:25;7.40;;;3.70;;
76065;SDS011;64763;48.928;8.474;2023-04-07T06:19:50;7.65;;;4.15;;
76065;SDS011;64763;48.928;8.474;2023-04-07T06:22:15;5.97;;;4.00;;
76065;SDS011;64763;48.928;8.474;2023-04-07T06:24:41;6.13;;;3.50;;
76065;SDS011;64763;48.928;8.474;2023-04-07T06:27:06;6.88;;;4.25;;
76065;SDS011;64763;48.928;8.474;2023-04-07T06:29:32;10.38;;;5.65;;
76065;SDS011;64763;48.928;8.474;2023-04-07T06:31:58;6.80;;;4.18;;
76065;SDS011;64763;48.928;8.474;2023-04-07T06:34:23;5.95;;;3.72;;
76065;SDS011;64763;48.928;8.474;2023-04-07T06:36:49;5.05;;;3.85;;
76065;SDS011;64763;48.928;8.474;2023-04-07T06:39:14;7.95;;;4.13;;
76065;SDS011;64763;48.928;8.474;2023-04-07T06:41:40;6.65;;;3.95;;
76065;SDS011;64763;48.928;8.474;2023-04-07T06:44:08;7.65;;;3.72;;
76065;SDS011;64763;48.928;8.474;2023-04-07T06:46:34;5.60;;;3.40;;
76065;SDS011;64763;48.928;8.474;2023-04-07T06:49:00;5.68;;;4.43;;
76065;SDS011;64763;48.928;8.474;2023-04-07T06:51:26;5.53;;;3.40;;
76065;SDS011;64763;48.928;8.474;2023-04-07T06:53:51;6.40;;;4.40;;
76065;SDS011;64763;48.928;8.474;2023-04-07T06:56:17;5.85;;;3.60;;
76065;SDS011;64763;48.928;8.474;2023-04-07T06:58:42;7.85;;;3.78;;
76065;SDS011;64763;48.928;8.474;2023-04-07T07:01:07;5.68;;;3.53;;
76065;SDS011;64763;48.928;8.474;2023-04-07T07:03:33;6.55;;;4.25;;
76065;SDS011;64763;48.928;8.474;2023-04-07T07:05:58;6.43;;;3.83;;
76065;SDS011;64763;48.928;8.474;2023-04-07T07:08:24;6.28;;;3.65;;
76065;SDS011;64763;48.928;8.474;2023-04-07T07:10:50;5.53;;;3.92;;
76065;SDS011;64763;48.928;8.474;2023-04-07T07:13:17;6.10;;;3.53;;
76065;SDS011;64763;48.928;8.474;2023-04-07T07:15:43;6.40;;;3.75;;
76065;SDS011;64763;48.928;8.474;2023-04-07T07:18:08;7.40;;;3.63;;
76065;SDS011;64763;48.928;8.474;2023-04-07T07:20:33;5.80;;;3.58;;
76065;SDS011;64763;48.928;8.474;2023-04-07T07:22:59;6.28;;;4.20;;
76065;SDS011;64763;48.928;8.474;2023-04-07T07:25:24;7.47;;;3.17;;
76065;SDS011;64763;48.928;8.474;2023-04-07T07:27:52;4.80;;;3.17;;
76065;SDS011;64763;48.928;8.474;2023-04-07T07:30:21;5.78;;;3.65;;
76065;SDS011;64763;48.928;8.474;2023-04-07T07:32:47;4.47;;;3.42;;
76065;SDS011;64763;48.928;8.474;2023-04-07T07:35:13;5.53;;;3.13;;
76065;SDS011;64763;48.928;8.474;2023-04-07T07:37:39;6.28;;;3.17;;
76065;SDS011;64763;48.928;8.474;2023-04-07T07:40:05;4.47;;;3.22;;
76065;SDS011;64763;48.928;8.474;2023-04-07T07:42:30;6.35;;;3.50;;
76065;SDS011;64763;48.928;8.474;2023-04-07T07:44:56;4.57;;;3.03;;
76065;SDS011;64763;48.928;8.474;2023-04-07T07:47:22;5.30;;;3.05;;
76065;SDS011;64763;48.928;8.474;2023-04-07T07:49:48;4.93;;;3.08;;
76065;SDS011;64763;48.928;8.474;2023-04-07T07:52:13;4.20;;;2.92;;
76065;SDS011;64763;48.928;8.474;2023-04-07T07:54:39;4.60;;;3.10;;
76065;SDS011;64763;48.928;8.474;2023-04-07T07:57:04;5.22;;;3.33;;
76065;SDS011;64763;48.928;8.474;2023-04-07T07:59:30;5.03;;;2.80;;
76065;SDS011;64763;48.928;8.474;2023-04-07T08:01:56;4.40;;;3.13;;
76065;SDS011;64763;48.928;8.474;2023-04-07T08:04:21;3.92;;;3.08;;
76065;SDS011;64763;48.928;8.474;2023-04-07T08:06:47;4.15;;;2.53;;
76065;SDS011;64763;48.928;8.474;2023-04-07T08:09:13;5.85;;;2.70;;
76065;SDS011;64763;48.928;8.474;2023-04-07T08:11:39;7.28;;;2.83;;
76065;SDS011;64763;48.928;8.474;2023-04-07T08:14:05;4.55;;;2.33;;
76065;SDS011;64763;48.928;8.474;2023-04-07T08:16:30;7.05;;;3.03;;
76065;SDS011;64763;48.928;8.474;2023-04-07T08:18:56;4.80;;;2.90;;
76065;SDS011;64763;48.928;8.474;2023-04-07T08:21:21;5.18;;;2.80;;
76065;SDS011;64763;48.928;8.474;2023-04-07T08:23:47;5.35;;;3.00;;
76065;SDS011;64763;48.928;8.474;2023-04-07T08:26:12;6.55;;;3.40;;
76065;SDS011;64763;48.928;8.474;2023-04-07T08:28:37;6.63;;;3.90;;
76065;SDS011;64763;48.928;8.474;2023-04-07T08:31:03;6.20;;;3.17;;
76065;SDS011;64763;48.928;8.474;2023-04-07T08:33:29;5.18;;;3.45;;
76065;SDS011;64763;48.928;8.474;2023-04-07T08:35:54;5.78;;;3.55;;
76065;SDS011;64763;48.928;8.474;2023-04-07T08:38:19;6.28;;;3.88;;
76065;SDS011;64763;48.928;8.474;2023-04-07T08:40:45;6.25;;;3.95;;
76065;SDS011;64763;48.928;8.474;2023-04-07T08:43:11;6.25;;;3.72;;
76065;SDS011;64763;48.928;8.474;2023-04-07T08:45:37;5.40;;;3.67;;
76065;SDS011;64763;48.928;8.474;2023-04-07T08:48:03;5.88;;;3.50;;
76065;SDS011;64763;48.928;8.474;2023-04-07T08:50:37;6.70;;;4.07;;
76065;SDS011;64763;48.928;8.474;2023-04-07T08:53:02;6.35;;;3.47;;
76065;SDS011;64763;48.928;8.474;2023-04-07T08:55:30;6.90;;;4.10;;
76065;SDS011;64763;48.928;8.474;2023-04-07T08:57:56;7.60;;;4.55;;
76065;SDS011;64763;48.928;8.474;2023-04-07T09:00:21;7.07;;;4.53;;
76065;SDS011;64763;48.928;8.474;2023-04-07T09:02:47;9.23;;;4.30;;
76065;SDS011;64763;48.928;8.474;2023-04-07T09:05:13;6.18;;;4.20;;
76065;SDS011;64763;48.928;8.474;2023-04-07T09:07:39;4.72;;;3.45;;
76065;SDS011;64763;48.928;8.474;2023-04-07T09:10:05;8.05;;;3.80;;
76065;SDS011;64763;48.928;8.474;2023-04-07T09:12:31;5.68;;;3.72;;
76065;SDS011;64763;48.928;8.474;2023-04-07T09:14:57;5.47;;;3.75;;
76065;SDS011;64763;48.928;8.474;2023-04-07T09:17:23;5.63;;;4.05;;
76065;SDS011;64763;48.928;8.474;2023-04-07T09:19:52;5.97;;;3.80;;
76065;SDS011;64763;48.928;8.474;2023-04-07T09:22:33;6.70;;;4.45;;
76065;SDS011;64763;48.928;8.474;2023-04-07T09:27:37;6.00;;;4.45;;
76065;SDS011;64763;48.928;8.474;2023-04-07T09:30:13;6.20;;;4.53;;
76065;SDS011;64763;48.928;8.474;2023-04-07T09:32:39;5.20;;;4.10;;
76065;SDS011;64763;48.928;8.474;2023-04-07T09:35:05;7.88;;;4.65;;
76065;SDS011;64763;48.928;8.474;2023-04-07T09:37:31;7.65;;;5.00;;
76065;SDS011;64763;48.928;8.474;2023-04-07T09:39:56;6.50;;;4.93;;
76065;SDS011;64763;48.928;8.474;2023-04-07T09:42:22;9.52;;;5.43;;
76065;SDS011;64763;48.928;8.474;2023-04-07T09:44:47;8.80;;;4.97;;
76065;SDS011;64763;48.928;8.474;2023-04-07T09:47:12;7.00;;;5.00;;
76065;SDS011;64763;48.928;8.474;2023-04-07T09:49:51;8.27;;;5.05;;
76065;SDS011;64763;48.928;8.474;2023-04-07T09:52:17;7.07;;;4.30;;
76065;SDS011;64763;48.928;8.474;2023-04-07T09:54:44;7.47;;;4.82;;
76065;SDS011;64763;48.928;8.474;2023-04-07T09:57:11;6.82;;;4.68;;
76065;SDS011;64763;48.928;8.474;2023-04-07T09:59:38;7.22;;;4.53;;
76065;SDS011;64763;48.928;8.474;2023-04-07T10:02:06;9.40;;;4.93;;
76065;SDS011;64763;48.928;8.474;2023-04-07T10:04:32;7.07;;;4.68;;
76065;SDS011;64763;48.928;8.474;2023-04-07T10:06:58;7.80;;;4.93;;
76065;SDS011;64763;48.928;8.474;2023-04-07T10:09:27;9.55;;;5.43;;
76065;SDS011;64763;48.928;8.474;2023-04-07T10:11:53;8.20;;;5.63;;
76065;SDS011;64763;48.928;8.474;2023-04-07T10:14:21;6.65;;;4.47;;
76065;SDS011;64763;48.928;8.474;2023-04-07T10:16:50;7.72;;;4.65;;
76065;SDS011;64763;48.928;8.474;2023-04-07T10:19:15;8.75;;;5.20;;
76065;SDS011;64763;48.928;8.474;2023-04-07T10:21:42;7.70;;;4.40;;
76065;SDS011;64763;48.928;8.474;2023-04-07T10:24:13;6.60;;;4.25;;
76065;SDS011;64763;48.928;8.474;2023-04-07T10:26:55;6.80;;;4.05;;
76065;SDS011;64763;48.928;8.474;2023-04-07T10:29:22;5.97;;;3.83;;
76065;SDS011;64763;48.928;8.474;2023-04-07T10:31:48;7.00;;;4.10;;
76065;SDS011;64763;48.928;8.474;2023-04-07T10:34:14;5.55;;;3.90;;
76065;SDS011;64763;48.928;8.474;2023-04-07T10:39:37;4.38;;;2.80;;
76065;SDS011;64763;48.928;8.474;2023-04-07T10:42:03;8.07;;;3.00;;
76065;SDS011;64763;48.928;8.474;2023-04-07T10:47:04;7.25;;;3.33;;
76065;SDS011;64763;48.928;8.474;2023-04-07T10:49:30;6.95;;;2.80;;
76065;SDS011;64763;48.928;8.474;2023-04-07T10:54:35;5.85;;;3.85;;
76065;SDS011;64763;48.928;8.474;2023-04-07T10:57:04;7.93;;;3.15;;
76065;SDS011;64763;48.928;8.474;2023-04-07T10:59:35;5.18;;;3.20;;
76065;SDS011;64763;48.928;8.474;2023-04-07T11:04:42;7.38;;;3.00;;
76065;SDS011;64763;48.928;8.474;2023-04-07T11:07:09;5.07;;;3.10;;
76065;SDS011;64763;48.928;8.474;2023-04-07T11:09:35;4.95;;;2.83;;
76065;SDS011;64763;48.928;8.474;2023-04-07T11:12:01;3.45;;;2.20;;
76065;SDS011;64763;48.928;8.474;2023-04-07T11:14:27;5.38;;;2.90;;
76065;SDS011;64763;48.928;8.474;2023-04-07T11:16:53;6.38;;;2.72;;
76065;SDS011;64763;48.928;8.474;2023-04-07T11:19:19;4.47;;;2.85;;
76065;SDS011;64763;48.928;8.474;2023-04-07T11:21:45;5.07;;;2.85;;
76065;SDS011;64763;48.928;8.474;2023-04-07T11:24:30;5.72;;;2.85;;
76065;SDS011;64763;48.928;8.474;2023-04-07T11:26:58;5.13;;;2.80;;
76065;SDS011;64763;48.928;8.474;2023-04-07T11:29:28;4.15;;;2.58;;
76065;SDS011;64763;48.928;8.474;2023-04-07T11:31:55;5.30;;;2.83;;
76065;SDS011;64763;48.928;8.474;2023-04-07T11:34:27;7.85;;;2.85;;
76065;SDS011;64763;48.928;8.474;2023-04-07T11:36:53;5.53;;;2.75;;
76065;SDS011;64763;48.928;8.474;2023-04-07T11:39:23;7.82;;;3.00;;
76065;SDS011;64763;48.928;8.474;2023-04-07T11:41:52;4.47;;;2.53;;
76065;SDS011;64763;48.928;8.474;2023-04-07T11:44:17;6.60;;;2.80;;
76065;SDS011;64763;48.928;8.474;2023-04-07T11:49:21;6.30;;;2.70;;
76065;SDS011;64763;48.928;8.474;2023-04-07T11:51:47;6.15;;;2.67;;
76065;SDS011;64763;48.928;8.474;2023-04-07T11:54:22;4.30;;;2.40;;
76065;SDS011;64763;48.928;8.474;2023-04-07T11:56:47;3.92;;;2.33;;
76065;SDS011;64763;48.928;8.474;2023-04-07T11:59:22;4.00;;;2.30;;
76065;SDS011;64763;48.928;8.474;2023-04-07T12:01:51;4.65;;;2.47;;
76065;SDS011;64763;48.928;8.474;2023-04-07T12:04:17;6.60;;;2.75;;
76065;SDS011;64763;48.928;8.474;2023-04-07T12:06:43;8.02;;;2.72;;
76065;SDS011;64763;48.928;8.474;2023-04-07T12:09:26;5.80;;;2.20;;
76065;SDS011;64763;48.928;8.474;2023-04-07T12:11:56;5.15;;;2.28;;
76065;SDS011;64763;48.928;8.474;2023-04-07T12:14:22;7.60;;;2.65;;
76065;SDS011;64763;48.928;8.474;2023-04-07T12:16:48;5.47;;;2.47;;
76065;SDS011;64763;48.928;8.474;2023-04-07T12:19:14;5.57;;;2.95;;
76065;SDS011;64763;48.928;8.474;2023-04-07T12:21:40;4.45;;;2.60;;
76065;SDS011;64763;48.928;8.474;2023-04-07T12:24:06;5.60;;;2.35;;
76065;SDS011;64763;48.928;8.474;2023-04-07T12:26:31;5.40;;;2.70;;
76065;SDS011;64763;48.928;8.474;2023-04-07T12:28:56;5.78;;;2.72;;
76065;SDS011;64763;48.928;8.474;2023-04-07T12:31:28;3.60;;;2.20;;
76065;SDS011;64763;48.928;8.474;2023-04-07T12:33:54;4.07;;;2.70;;
76065;SDS011;64763;48.928;8.474;2023-04-07T12:36:20;3.58;;;2.10;;
76065;SDS011;64763;48.928;8.474;2023-04-07T12:38:46;5.70;;;2.40;;
76065;SDS011;64763;48.928;8.474;2023-04-07T12:41:12;4.45;;;2.20;;
76065;SDS011;64763;48.928;8.474;2023-04-07T12:43:37;4.07;;;2.20;;
76065;SDS011;64763;48.928;8.474;2023-04-07T12:46:02;5.15;;;2.03;;
76065;SDS011;64763;48.928;8.474;2023-04-07T12:48:28;3.25;;;1.90;;
76065;SDS011;64763;48.928;8.474;2023-04-07T12:50:53;4.97;;;2.75;;
76065;SDS011;64763;48.928;8.474;2023-04-07T12:53:18;4.95;;;2.47;;
76065;SDS011;64763;48.928;8.474;2023-04-07T12:55:44;3.78;;;2.17;;
76065;SDS011;64763;48.928;8.474;2023-04-07T12:58:12;4.88;;;2.30;;
76065;SDS011;64763;48.928;8.474;2023-04-07T13:00:37;4.60;;;2.13;;
76065;SDS011;64763;48.928;8.474;2023-04-07T13:03:03;5.32;;;2.03;;
76065;SDS011;64763;48.928;8.474;2023-04-07T13:05:28;4.25;;;2.42;;
76065;SDS011;64763;48.928;8.474;2023-04-07T13:07:54;4.45;;;2.85;;
76065;SDS011;64763;48.928;8.474;2023-04-07T13:10:19;4.35;;;2.47;;
76065;SDS011;64763;48.928;8.474;2023-04-07T13:12:45;5.47;;;2.67;;
76065;SDS011;64763;48.928;8.474;2023-04-07T13:15:10;5.72;;;2.58;;
76065;SDS011;64763;48.928;8.474;2023-04-07T13:17:36;7.45;;;2.50;;
76065;SDS011;64763;48.928;8.474;2023-04-07T13:20:02;4.10;;;2.42;;
76065;SDS011;64763;48.928;8.474;2023-04-07T13:22:29;6.60;;;2.35;;
76065;SDS011;64763;48.928;8.474;2023-04-07T13:24:54;4.85;;;2.53;;
76065;SDS011;64763;48.928;8.474;2023-04-07T13:27:20;4.28;;;2.63;;
76065;SDS011;64763;48.928;8.474;2023-04-07T13:29:45;8.75;;;3.63;;
76065;SDS011;64763;48.928;8.474;2023-04-07T13:32:11;9.20;;;3.22;;
76065;SDS011;64763;48.928;8.474;2023-04-07T13:34:40;5.88;;;3.10;;
76065;SDS011;64763;48.928;8.474;2023-04-07T13:37:06;5.93;;;3.28;;
76065;SDS011;64763;48.928;8.474;2023-04-07T13:39:31;7.88;;;3.20;;
76065;SDS011;64763;48.928;8.474;2023-04-07T13:41:57;5.47;;;2.83;;
76065;SDS011;64763;48.928;8.474;2023-04-07T13:44:23;4.18;;;2.42;;
76065;SDS011;64763;48.928;8.474;2023-04-07T13:46:50;5.88;;;2.78;;
76065;SDS011;64763;48.928;8.474;2023-04-07T13:49:16;6.63;;;2.47;;
76065;SDS011;64763;48.928;8.474;2023-04-07T13:51:41;3.38;;;2.60;;
76065;SDS011;64763;48.928;8.474;2023-04-07T13:54:07;4.32;;;2.58;;
76065;SDS011;64763;48.928;8.474;2023-04-07T13:56:32;3.90;;;2.03;;
76065;SDS011;64763;48.928;8.474;2023-04-07T13:58:59;3.40;;;2.50;;
76065;SDS011;64763;48.928;8.474;2023-04-07T14:01:25;4.78;;;2.47;;
76065;SDS011;64763;48.928;8.474;2023-04-07T14:03:51;3.28;;;2.10;;
76065;SDS011;64763;48.928;8.474;2023-04-07T14:06:17;4.32;;;2.50;;
76065;SDS011;64763;48.928;8.474;2023-04-07T14:08:46;6.07;;;2.22;;
76065;SDS011;64763;48.928;8.474;2023-04-07T14:11:14;4.07;;;2.22;;
76065;SDS011;64763;48.928;8.474;2023-04-07T14:13:41;4.85;;;2.13;;
76065;SDS011;64763;48.928;8.474;2023-04-07T14:16:06;4.75;;;2.17;;
76065;SDS011;64763;48.928;8.474;2023-04-07T14:18:32;3.13;;;1.85;;
76065;SDS011;64763;48.928;8.474;2023-04-07T14:20:57;4.22;;;2.22;;
76065;SDS011;64763;48.928;8.474;2023-04-07T14:23:24;6.38;;;2.10;;
76065;SDS011;64763;48.928;8.474;2023-04-07T14:25:49;3.70;;;1.95;;
76065;SDS011;64763;48.928;8.474;2023-04-07T14:28:15;3.72;;;2.13;;
76065;SDS011;64763;48.928;8.474;2023-04-07T14:30:40;5.50;;;2.90;;
76065;SDS011;64763;48.928;8.474;2023-04-07T14:33:05;5.78;;;3.40;;
76065;SDS011;64763;48.928;8.474;2023-04-07T14:35:31;6.88;;;3.17;;
76065;SDS011;64763;48.928;8.474;2023-04-07T14:37:56;5.15;;;3.20;;
76065;SDS011;64763;48.928;8.474;2023-04-07T14:40:22;4.40;;;3.10;;
76065;SDS011;64763;48.928;8.474;2023-04-07T14:42:47;4.00;;;2.67;;
76065;SDS011;64763;48.928;8.474;2023-04-07T14:45:12;7.03;;;2.55;;
76065;SDS011;64763;48.928;8.474;2023-04-07T14:47:38;5.90;;;2.70;;
76065;SDS011;64763;48.928;8.474;2023-04-07T14:50:03;4.43;;;2.45;;
76065;SDS011;64763;48.928;8.474;2023-04-07T14:52:29;3.75;;;2.53;;
76065;SDS011;64763;48.928;8.474;2023-04-07T14:54:54;4.50;;;2.17;;
76065;SDS011;64763;48.928;8.474;2023-04-07T14:57:20;4.32;;;2.20;;
76065;SDS011;64763;48.928;8.474;2023-04-07T14:59:46;4.55;;;2.20;;
76065;SDS011;64763;48.928;8.474;2023-04-07T15:02:11;4.90;;;2.08;;
76065;SDS011;64763;48.928;8.474;2023-04-07T15:04:37;3.63;;;2.20;;
76065;SDS011;64763;48.928;8.474;2023-04-07T15:07:02;4.18;;;2.00;;
76065;SDS011;64763;48.928;8.474;2023-04-07T15:09:28;4.00;;;2.45;;
76065;SDS011;64763;48.928;8.474;2023-04-07T15:11:54;5.32;;;2.38;;